sensor_id;sensor_type;location;lat;lon;timestamp;P1;durP1;ratioP1;P2;durP2;ratioP2
66721;SDS011;53633;49.932;10.884;2022-07-29T00:02:11;7.60;;;2.47;;
66721;SDS011;53633;49.932;10.884;2022-07-29T00:04:38;8.95;;;3.33;;
66721;SDS011;53633;49.932;10.884;2022-07-29T00:07:06;8.35;;;2.75;;
66721;SDS011;53633;49.932;10.884;2022-07-29T00:09:32;9.50;;;3.22;;
66721;SDS011;53633;49.932;10.884;2022-07-29T00:12:17;9.93;;;2.70;;
66721;SDS011;53633;49.932;10.884;2022-07-29T00:14:51;10.10;;;2.97;;
66721;SDS011;53633;49.932;10.884;2022-07-29T00:17:18;8.57;;;3.00;;
66721;SDS011;53633;49.932;10.884;2022-07-29T00:19:44;10.50;;;3.10;;
66721;SDS011;53633;49.932;10.884;2022-07-29T00:22:12;7.13;;;2.75;;
66721;SDS011;53633;49.932;10.884;2022-07-29T00:24:40;11.03;;;2.70;;
66721;SDS011;53633;49.932;10.884;2022-07-29T00:27:06;10.57;;;3.20;;
66721;SDS011;53633;49.932;10.884;2022-07-29T00:29:33;7.22;;;3.13;;
66721;SDS011;53633;49.932;10.884;2022-07-29T00:32:00;8.45;;;3.05;;
66721;SDS011;53633;49.932;10.884;2022-07-29T00:34:27;7.35;;;2.83;;
66721;SDS011;53633;49.932;10.884;2022-07-29T00:36:54;9.07;;;3.40;;
66721;SDS011;53633;49.932;10.884;2022-07-29T00:39:22;8.77;;;2.95;;
66721;SDS011;53633;49.932;10.884;2022-07-29T00:41:55;9.02;;;3.35;;
66721;SDS011;53633;49.932;10.884;2022-07-29T00:44:22;7.50;;;2.58;;
66721;SDS011;53633;49.932;10.884;2022-07-29T00:46:49;8.07;;;2.30;;
66721;SDS011;53633;49.932;10.884;2022-07-29T00:49:15;7.03;;;2.80;;
66721;SDS011;53633;49.932;10.884;2022-07-29T00:51:42;7.13;;;3.00;;
66721;SDS011;53633;49.932;10.884;2022-07-29T00:54:09;8.38;;;2.75;;
66721;SDS011;53633;49.932;10.884;2022-07-29T00:56:37;6.97;;;2.42;;
66721;SDS011;53633;49.932;10.884;2022-07-29T00:59:03;8.68;;;2.58;;
66721;SDS011;53633;49.932;10.884;2022-07-29T01:01:30;8.73;;;2.63;;
66721;SDS011;53633;49.932;10.884;2022-07-29T01:03:57;7.45;;;2.42;;
66721;SDS011;53633;49.932;10.884;2022-07-29T01:06:23;7.47;;;2.67;;
66721;SDS011;53633;49.932;10.884;2022-07-29T01:08:51;9.68;;;2.75;;
66721;SDS011;53633;49.932;10.884;2022-07-29T01:11:18;7.65;;;2.35;;
66721;SDS011;53633;49.932;10.884;2022-07-29T01:13:46;13.37;;;2.73;;
66721;SDS011;53633;49.932;10.884;2022-07-29T01:16:15;8.73;;;2.53;;
66721;SDS011;53633;49.932;10.884;2022-07-29T01:18:47;9.80;;;2.80;;
66721;SDS011;53633;49.932;10.884;2022-07-29T01:21:24;7.93;;;2.53;;
66721;SDS011;53633;49.932;10.884;2022-07-29T01:24:09;6.90;;;2.50;;
66721;SDS011;53633;49.932;10.884;2022-07-29T01:26:46;6.87;;;2.50;;
66721;SDS011;53633;49.932;10.884;2022-07-29T01:29:22;8.23;;;2.28;;
66721;SDS011;53633;49.932;10.884;2022-07-29T01:32:06;8.07;;;2.67;;
66721;SDS011;53633;49.932;10.884;2022-07-29T01:34:53;7.50;;;2.50;;
66721;SDS011;53633;49.932;10.884;2022-07-29T01:37:24;7.35;;;2.17;;
66721;SDS011;53633;49.932;10.884;2022-07-29T01:39:55;9.07;;;2.10;;
66721;SDS011;53633;49.932;10.884;2022-07-29T01:42:26;7.68;;;2.25;;
66721;SDS011;53633;49.932;10.884;2022-07-29T01:44:57;6.68;;;2.22;;
66721;SDS011;53633;49.932;10.884;2022-07-29T01:47:31;7.88;;;2.42;;
66721;SDS011;53633;49.932;10.884;2022-07-29T01:50:01;7.22;;;2.65;;
66721;SDS011;53633;49.932;10.884;2022-07-29T01:52:33;9.03;;;2.30;;
66721;SDS011;53633;49.932;10.884;2022-07-29T01:55:04;9.48;;;2.65;;
66721;SDS011;53633;49.932;10.884;2022-07-29T01:57:35;9.65;;;2.47;;
66721;SDS011;53633;49.932;10.884;2022-07-29T02:00:07;7.07;;;2.40;;
66721;SDS011;53633;49.932;10.884;2022-07-29T02:02:35;9.20;;;2.67;;
66721;SDS011;53633;49.932;10.884;2022-07-29T02:05:05;6.03;;;2.33;;
66721;SDS011;53633;49.932;10.884;2022-07-29T02:07:34;7.80;;;1.92;;
66721;SDS011;53633;49.932;10.884;2022-07-29T02:10:03;8.68;;;2.28;;
66721;SDS011;53633;49.932;10.884;2022-07-29T02:12:31;8.07;;;2.30;;
66721;SDS011;53633;49.932;10.884;2022-07-29T02:14:59;8.05;;;2.17;;
66721;SDS011;53633;49.932;10.884;2022-07-29T02:17:31;10.87;;;2.30;;
66721;SDS011;53633;49.932;10.884;2022-07-29T02:20:06;7.50;;;2.25;;
66721;SDS011;53633;49.932;10.884;2022-07-29T02:22:35;5.95;;;2.33;;
66721;SDS011;53633;49.932;10.884;2022-07-29T02:25:05;10.60;;;2.45;;
66721;SDS011;53633;49.932;10.884;2022-07-29T02:27:39;6.75;;;2.33;;
66721;SDS011;53633;49.932;10.884;2022-07-29T02:30:07;11.70;;;2.10;;
66721;SDS011;53633;49.932;10.884;2022-07-29T02:32:36;7.75;;;2.22;;
66721;SDS011;53633;49.932;10.884;2022-07-29T02:35:05;8.95;;;2.20;;
66721;SDS011;53633;49.932;10.884;2022-07-29T02:37:34;6.85;;;1.90;;
66721;SDS011;53633;49.932;10.884;2022-07-29T02:40:03;7.70;;;2.72;;
66721;SDS011;53633;49.932;10.884;2022-07-29T02:42:32;6.73;;;1.80;;
66721;SDS011;53633;49.932;10.884;2022-07-29T02:45:01;6.20;;;1.83;;
66721;SDS011;53633;49.932;10.884;2022-07-29T02:47:36;8.90;;;2.20;;
66721;SDS011;53633;49.932;10.884;2022-07-29T02:50:10;5.60;;;2.17;;
66721;SDS011;53633;49.932;10.884;2022-07-29T02:52:39;5.75;;;2.10;;
66721;SDS011;53633;49.932;10.884;2022-07-29T02:55:10;7.53;;;2.20;;
66721;SDS011;53633;49.932;10.884;2022-07-29T02:57:43;6.47;;;2.15;;
66721;SDS011;53633;49.932;10.884;2022-07-29T03:00:20;7.45;;;2.20;;
66721;SDS011;53633;49.932;10.884;2022-07-29T03:02:52;7.95;;;2.25;;
66721;SDS011;53633;49.932;10.884;2022-07-29T03:05:20;7.65;;;3.03;;
66721;SDS011;53633;49.932;10.884;2022-07-29T03:07:49;8.00;;;2.30;;
66721;SDS011;53633;49.932;10.884;2022-07-29T03:10:19;8.30;;;2.50;;
66721;SDS011;53633;49.932;10.884;2022-07-29T03:12:47;6.93;;;2.30;;
66721;SDS011;53633;49.932;10.884;2022-07-29T03:15:14;5.53;;;1.92;;
66721;SDS011;53633;49.932;10.884;2022-07-29T03:18:10;9.13;;;2.50;;
66721;SDS011;53633;49.932;10.884;2022-07-29T03:20:38;9.97;;;2.23;;
66721;SDS011;53633;49.932;10.884;2022-07-29T03:23:05;7.75;;;2.10;;
66721;SDS011;53633;49.932;10.884;2022-07-29T03:25:32;7.88;;;2.20;;
66721;SDS011;53633;49.932;10.884;2022-07-29T03:27:58;6.30;;;2.47;;
66721;SDS011;53633;49.932;10.884;2022-07-29T03:30:25;8.05;;;2.35;;
66721;SDS011;53633;49.932;10.884;2022-07-29T03:32:52;9.67;;;2.30;;
66721;SDS011;53633;49.932;10.884;2022-07-29T03:35:23;7.18;;;1.98;;
66721;SDS011;53633;49.932;10.884;2022-07-29T03:37:49;7.28;;;1.95;;
66721;SDS011;53633;49.932;10.884;2022-07-29T03:40:18;7.95;;;1.90;;
66721;SDS011;53633;49.932;10.884;2022-07-29T03:42:48;9.40;;;1.98;;
66721;SDS011;53633;49.932;10.884;2022-07-29T03:45:17;10.07;;;2.40;;
66721;SDS011;53633;49.932;10.884;2022-07-29T03:47:47;9.73;;;2.30;;
66721;SDS011;53633;49.932;10.884;2022-07-29T03:50:26;6.28;;;2.40;;
66721;SDS011;53633;49.932;10.884;2022-07-29T03:52:54;7.00;;;2.40;;
66721;SDS011;53633;49.932;10.884;2022-07-29T03:55:20;8.40;;;2.40;;
66721;SDS011;53633;49.932;10.884;2022-07-29T03:57:47;6.00;;;2.03;;
66721;SDS011;53633;49.932;10.884;2022-07-29T04:00:15;7.75;;;2.40;;
66721;SDS011;53633;49.932;10.884;2022-07-29T04:02:42;8.98;;;2.30;;
66721;SDS011;53633;49.932;10.884;2022-07-29T04:05:11;6.78;;;1.65;;
66721;SDS011;53633;49.932;10.884;2022-07-29T04:07:39;8.65;;;2.35;;
66721;SDS011;53633;49.932;10.884;2022-07-29T04:10:06;7.73;;;2.23;;
66721;SDS011;53633;49.932;10.884;2022-07-29T04:12:33;7.13;;;2.47;;
66721;SDS011;53633;49.932;10.884;2022-07-29T04:15:00;6.82;;;2.25;;
66721;SDS011;53633;49.932;10.884;2022-07-29T04:17:27;6.10;;;1.92;;
66721;SDS011;53633;49.932;10.884;2022-07-29T04:19:54;6.80;;;2.22;;
66721;SDS011;53633;49.932;10.884;2022-07-29T04:22:20;6.43;;;2.10;;
66721;SDS011;53633;49.932;10.884;2022-07-29T04:24:49;6.57;;;1.77;;
66721;SDS011;53633;49.932;10.884;2022-07-29T04:27:16;8.38;;;2.30;;
66721;SDS011;53633;49.932;10.884;2022-07-29T04:29:42;5.85;;;2.03;;
66721;SDS011;53633;49.932;10.884;2022-07-29T04:32:22;4.97;;;1.77;;
66721;SDS011;53633;49.932;10.884;2022-07-29T04:34:49;9.63;;;1.90;;
66721;SDS011;53633;49.932;10.884;2022-07-29T04:37:16;9.73;;;2.30;;
66721;SDS011;53633;49.932;10.884;2022-07-29T04:39:42;5.88;;;1.70;;
66721;SDS011;53633;49.932;10.884;2022-07-29T04:42:10;5.82;;;1.85;;
66721;SDS011;53633;49.932;10.884;2022-07-29T04:44:38;5.32;;;1.85;;
66721;SDS011;53633;49.932;10.884;2022-07-29T04:47:08;6.50;;;1.90;;
66721;SDS011;53633;49.932;10.884;2022-07-29T04:49:37;8.50;;;2.30;;
66721;SDS011;53633;49.932;10.884;2022-07-29T04:52:04;7.72;;;2.03;;
66721;SDS011;53633;49.932;10.884;2022-07-29T04:54:31;7.13;;;2.35;;
66721;SDS011;53633;49.932;10.884;2022-07-29T04:56:58;5.18;;;1.73;;
66721;SDS011;53633;49.932;10.884;2022-07-29T04:59:26;7.47;;;1.90;;
66721;SDS011;53633;49.932;10.884;2022-07-29T05:01:53;6.65;;;1.80;;
66721;SDS011;53633;49.932;10.884;2022-07-29T05:04:19;5.90;;;1.80;;
66721;SDS011;53633;49.932;10.884;2022-07-29T05:06:46;6.60;;;1.63;;
66721;SDS011;53633;49.932;10.884;2022-07-29T05:09:13;6.55;;;2.05;;
66721;SDS011;53633;49.932;10.884;2022-07-29T05:12:07;6.93;;;1.77;;
66721;SDS011;53633;49.932;10.884;2022-07-29T05:14:36;6.68;;;2.22;;
66721;SDS011;53633;49.932;10.884;2022-07-29T05:17:04;7.72;;;2.70;;
66721;SDS011;53633;49.932;10.884;2022-07-29T05:19:31;6.28;;;2.13;;
66721;SDS011;53633;49.932;10.884;2022-07-29T05:21:58;7.05;;;1.90;;
66721;SDS011;53633;49.932;10.884;2022-07-29T05:24:24;7.07;;;2.00;;
66721;SDS011;53633;49.932;10.884;2022-07-29T05:26:51;8.48;;;2.08;;
66721;SDS011;53633;49.932;10.884;2022-07-29T05:29:18;7.90;;;2.13;;
66721;SDS011;53633;49.932;10.884;2022-07-29T05:32:06;5.80;;;1.67;;
66721;SDS011;53633;49.932;10.884;2022-07-29T05:34:33;5.35;;;1.88;;
66721;SDS011;53633;49.932;10.884;2022-07-29T05:36:59;5.27;;;1.90;;
66721;SDS011;53633;49.932;10.884;2022-07-29T05:39:26;5.50;;;2.00;;
66721;SDS011;53633;49.932;10.884;2022-07-29T05:42:14;7.57;;;2.20;;
66721;SDS011;53633;49.932;10.884;2022-07-29T05:45:09;10.63;;;2.05;;
66721;SDS011;53633;49.932;10.884;2022-07-29T05:47:37;5.88;;;2.00;;
66721;SDS011;53633;49.932;10.884;2022-07-29T05:50:04;11.83;;;2.10;;
66721;SDS011;53633;49.932;10.884;2022-07-29T05:52:32;12.63;;;2.10;;
66721;SDS011;53633;49.932;10.884;2022-07-29T05:54:58;10.00;;;2.28;;
66721;SDS011;53633;49.932;10.884;2022-07-29T05:57:25;7.07;;;1.85;;
66721;SDS011;53633;49.932;10.884;2022-07-29T05:59:52;9.18;;;2.00;;
66721;SDS011;53633;49.932;10.884;2022-07-29T06:02:18;7.23;;;2.27;;
66721;SDS011;53633;49.932;10.884;2022-07-29T06:04:46;7.05;;;2.30;;
66721;SDS011;53633;49.932;10.884;2022-07-29T06:07:13;7.30;;;2.00;;
66721;SDS011;53633;49.932;10.884;2022-07-29T06:09:40;7.55;;;2.05;;
66721;SDS011;53633;49.932;10.884;2022-07-29T06:12:07;7.57;;;2.38;;
66721;SDS011;53633;49.932;10.884;2022-07-29T06:14:34;5.43;;;1.57;;
66721;SDS011;53633;49.932;10.884;2022-07-29T06:17:05;7.75;;;2.42;;
66721;SDS011;53633;49.932;10.884;2022-07-29T06:19:33;10.20;;;2.83;;
66721;SDS011;53633;49.932;10.884;2022-07-29T06:22:02;10.23;;;2.50;;
66721;SDS011;53633;49.932;10.884;2022-07-29T06:24:29;7.35;;;2.58;;
66721;SDS011;53633;49.932;10.884;2022-07-29T06:26:56;8.93;;;2.50;;
66721;SDS011;53633;49.932;10.884;2022-07-29T06:29:22;4.70;;;2.13;;
66721;SDS011;53633;49.932;10.884;2022-07-29T06:31:49;6.93;;;2.70;;
66721;SDS011;53633;49.932;10.884;2022-07-29T06:34:16;5.07;;;2.28;;
66721;SDS011;53633;49.932;10.884;2022-07-29T06:36:44;10.30;;;2.92;;
66721;SDS011;53633;49.932;10.884;2022-07-29T06:39:12;10.33;;;2.37;;
66721;SDS011;53633;49.932;10.884;2022-07-29T06:41:39;7.40;;;2.40;;
66721;SDS011;53633;49.932;10.884;2022-07-29T06:44:06;6.93;;;2.67;;
66721;SDS011;53633;49.932;10.884;2022-07-29T06:46:32;9.25;;;2.78;;
66721;SDS011;53633;49.932;10.884;2022-07-29T06:49:09;5.90;;;2.42;;
66721;SDS011;53633;49.932;10.884;2022-07-29T06:51:35;7.60;;;2.23;;
66721;SDS011;53633;49.932;10.884;2022-07-29T06:54:04;8.13;;;2.13;;
66721;SDS011;53633;49.932;10.884;2022-07-29T06:56:33;9.77;;;2.40;;
66721;SDS011;53633;49.932;10.884;2022-07-29T06:59:05;8.07;;;2.67;;
66721;SDS011;53633;49.932;10.884;2022-07-29T07:01:32;10.38;;;2.38;;
66721;SDS011;53633;49.932;10.884;2022-07-29T07:03:59;9.07;;;2.43;;
66721;SDS011;53633;49.932;10.884;2022-07-29T07:06:26;9.25;;;2.60;;
66721;SDS011;53633;49.932;10.884;2022-07-29T07:08:53;7.40;;;2.40;;
66721;SDS011;53633;49.932;10.884;2022-07-29T07:11:20;6.22;;;2.63;;
66721;SDS011;53633;49.932;10.884;2022-07-29T07:13:48;8.57;;;3.00;;
66721;SDS011;53633;49.932;10.884;2022-07-29T07:16:14;8.27;;;3.33;;
66721;SDS011;53633;49.932;10.884;2022-07-29T07:18:41;7.82;;;2.72;;
66721;SDS011;53633;49.932;10.884;2022-07-29T07:21:08;5.68;;;2.70;;
66721;SDS011;53633;49.932;10.884;2022-07-29T07:23:34;7.50;;;2.80;;
66721;SDS011;53633;49.932;10.884;2022-07-29T07:26:04;8.38;;;3.00;;
66721;SDS011;53633;49.932;10.884;2022-07-29T07:28:30;8.00;;;2.30;;
66721;SDS011;53633;49.932;10.884;2022-07-29T07:30:58;6.22;;;2.92;;
66721;SDS011;53633;49.932;10.884;2022-07-29T07:33:25;7.25;;;2.47;;
66721;SDS011;53633;49.932;10.884;2022-07-29T07:35:52;5.38;;;2.60;;
66721;SDS011;53633;49.932;10.884;2022-07-29T07:38:18;7.07;;;2.85;;
66721;SDS011;53633;49.932;10.884;2022-07-29T07:40:45;6.03;;;3.00;;
66721;SDS011;53633;49.932;10.884;2022-07-29T07:43:12;6.93;;;2.50;;
66721;SDS011;53633;49.932;10.884;2022-07-29T07:45:39;8.25;;;3.03;;
66721;SDS011;53633;49.932;10.884;2022-07-29T07:48:07;7.97;;;2.90;;
66721;SDS011;53633;49.932;10.884;2022-07-29T07:50:33;7.03;;;2.80;;
66721;SDS011;53633;49.932;10.884;2022-07-29T07:53:00;7.00;;;2.77;;
66721;SDS011;53633;49.932;10.884;2022-07-29T07:55:27;6.13;;;2.33;;
66721;SDS011;53633;49.932;10.884;2022-07-29T07:57:53;8.50;;;2.95;;
66721;SDS011;53633;49.932;10.884;2022-07-29T08:00:20;6.38;;;2.30;;
66721;SDS011;53633;49.932;10.884;2022-07-29T08:02:49;4.40;;;2.10;;
66721;SDS011;53633;49.932;10.884;2022-07-29T08:05:18;6.30;;;2.70;;
66721;SDS011;53633;49.932;10.884;2022-07-29T08:07:44;6.00;;;2.60;;
66721;SDS011;53633;49.932;10.884;2022-07-29T08:10:12;7.47;;;2.67;;
66721;SDS011;53633;49.932;10.884;2022-07-29T08:12:39;4.40;;;2.20;;
66721;SDS011;53633;49.932;10.884;2022-07-29T08:15:06;7.68;;;2.72;;
66721;SDS011;53633;49.932;10.884;2022-07-29T08:17:34;6.23;;;2.60;;
66721;SDS011;53633;49.932;10.884;2022-07-29T08:20:00;5.18;;;2.30;;
66721;SDS011;53633;49.932;10.884;2022-07-29T08:22:29;5.30;;;2.50;;
66721;SDS011;53633;49.932;10.884;2022-07-29T08:24:56;7.47;;;2.55;;
66721;SDS011;53633;49.932;10.884;2022-07-29T08:27:22;6.65;;;3.10;;
66721;SDS011;53633;49.932;10.884;2022-07-29T08:30:08;6.27;;;2.80;;
66721;SDS011;53633;49.932;10.884;2022-07-29T08:32:35;7.10;;;2.50;;
66721;SDS011;53633;49.932;10.884;2022-07-29T08:35:19;7.13;;;2.88;;
66721;SDS011;53633;49.932;10.884;2022-07-29T08:37:47;6.65;;;2.95;;
66721;SDS011;53633;49.932;10.884;2022-07-29T08:40:14;9.00;;;3.33;;
66721;SDS011;53633;49.932;10.884;2022-07-29T08:42:41;9.57;;;3.17;;
66721;SDS011;53633;49.932;10.884;2022-07-29T08:45:08;7.35;;;2.90;;
66721;SDS011;53633;49.932;10.884;2022-07-29T08:47:35;5.63;;;2.47;;
66721;SDS011;53633;49.932;10.884;2022-07-29T08:50:04;7.65;;;2.92;;
66721;SDS011;53633;49.932;10.884;2022-07-29T08:52:32;7.20;;;2.85;;
66721;SDS011;53633;49.932;10.884;2022-07-29T08:55:06;6.50;;;2.27;;
66721;SDS011;53633;49.932;10.884;2022-07-29T08:57:35;5.07;;;3.15;;
66721;SDS011;53633;49.932;10.884;2022-07-29T09:00:03;5.55;;;3.08;;
66721;SDS011;53633;49.932;10.884;2022-07-29T09:02:39;5.05;;;2.47;;
66721;SDS011;53633;49.932;10.884;2022-07-29T09:05:06;5.70;;;2.67;;
66721;SDS011;53633;49.932;10.884;2022-07-29T09:07:33;5.83;;;2.60;;
66721;SDS011;53633;49.932;10.884;2022-07-29T09:10:01;7.85;;;2.92;;
66721;SDS011;53633;49.932;10.884;2022-07-29T09:12:31;4.65;;;2.58;;
66721;SDS011;53633;49.932;10.884;2022-07-29T09:15:03;5.03;;;2.50;;
66721;SDS011;53633;49.932;10.884;2022-07-29T09:17:38;6.68;;;2.67;;
66721;SDS011;53633;49.932;10.884;2022-07-29T09:20:08;5.80;;;2.70;;
66721;SDS011;53633;49.932;10.884;2022-07-29T09:22:35;8.35;;;3.33;;
66721;SDS011;53633;49.932;10.884;2022-07-29T09:25:07;7.55;;;3.08;;
66721;SDS011;53633;49.932;10.884;2022-07-29T09:27:35;6.32;;;3.00;;
66721;SDS011;53633;49.932;10.884;2022-07-29T09:30:03;11.50;;;3.78;;
66721;SDS011;53633;49.932;10.884;2022-07-29T09:32:31;5.97;;;2.40;;
66721;SDS011;53633;49.932;10.884;2022-07-29T09:35:13;8.48;;;2.67;;
66721;SDS011;53633;49.932;10.884;2022-07-29T09:37:41;6.80;;;2.70;;
66721;SDS011;53633;49.932;10.884;2022-07-29T09:40:11;7.38;;;2.58;;
66721;SDS011;53633;49.932;10.884;2022-07-29T09:42:40;7.82;;;2.83;;
66721;SDS011;53633;49.932;10.884;2022-07-29T09:45:07;5.90;;;2.60;;
66721;SDS011;53633;49.932;10.884;2022-07-29T09:47:40;7.55;;;3.30;;
66721;SDS011;53633;49.932;10.884;2022-07-29T09:50:08;6.80;;;3.03;;
66721;SDS011;53633;49.932;10.884;2022-07-29T09:52:44;5.75;;;2.83;;
66721;SDS011;53633;49.932;10.884;2022-07-29T09:55:11;6.55;;;3.50;;
66721;SDS011;53633;49.932;10.884;2022-07-29T09:57:45;6.80;;;3.03;;
66721;SDS011;53633;49.932;10.884;2022-07-29T10:00:13;6.45;;;2.83;;
66721;SDS011;53633;49.932;10.884;2022-07-29T10:02:42;6.35;;;3.20;;
66721;SDS011;53633;49.932;10.884;2022-07-29T10:05:19;6.13;;;3.00;;
66721;SDS011;53633;49.932;10.884;2022-07-29T10:07:47;6.90;;;3.10;;
66721;SDS011;53633;49.932;10.884;2022-07-29T10:10:20;5.70;;;2.73;;
66721;SDS011;53633;49.932;10.884;2022-07-29T10:12:50;5.65;;;2.50;;
66721;SDS011;53633;49.932;10.884;2022-07-29T10:15:18;4.55;;;2.50;;
66721;SDS011;53633;49.932;10.884;2022-07-29T10:17:46;11.88;;;3.10;;
66721;SDS011;53633;49.932;10.884;2022-07-29T10:20:14;7.53;;;2.60;;
66721;SDS011;53633;49.932;10.884;2022-07-29T10:22:42;5.27;;;2.43;;
66721;SDS011;53633;49.932;10.884;2022-07-29T10:25:19;6.60;;;2.83;;
66721;SDS011;53633;49.932;10.884;2022-07-29T10:27:47;4.80;;;2.47;;
66721;SDS011;53633;49.932;10.884;2022-07-29T10:30:16;8.77;;;3.00;;
66721;SDS011;53633;49.932;10.884;2022-07-29T10:35:44;6.33;;;2.27;;
66721;SDS011;53633;49.932;10.884;2022-07-29T10:38:36;9.15;;;2.60;;
66721;SDS011;53633;49.932;10.884;2022-07-29T10:41:16;5.07;;;2.45;;
66721;SDS011;53633;49.932;10.884;2022-07-29T10:44:12;9.40;;;2.63;;
66721;SDS011;53633;49.932;10.884;2022-07-29T10:46:46;7.90;;;2.63;;
66721;SDS011;53633;49.932;10.884;2022-07-29T10:49:16;7.43;;;2.90;;
66721;SDS011;53633;49.932;10.884;2022-07-29T10:52:03;11.18;;;3.08;;
66721;SDS011;53633;49.932;10.884;2022-07-29T10:54:44;10.07;;;3.05;;
66721;SDS011;53633;49.932;10.884;2022-07-29T10:57:14;12.20;;;2.60;;
66721;SDS011;53633;49.932;10.884;2022-07-29T11:00:27;6.15;;;2.70;;
66721;SDS011;53633;49.932;10.884;2022-07-29T11:02:57;8.37;;;2.60;;
66721;SDS011;53633;49.932;10.884;2022-07-29T11:05:24;9.68;;;3.25;;
66721;SDS011;53633;49.932;10.884;2022-07-29T11:08:22;7.22;;;3.25;;
66721;SDS011;53633;49.932;10.884;2022-07-29T11:14:02;8.10;;;2.95;;
66721;SDS011;53633;49.932;10.884;2022-07-29T11:19:28;6.07;;;2.90;;
66721;SDS011;53633;49.932;10.884;2022-07-29T11:21:56;7.90;;;2.70;;
66721;SDS011;53633;49.932;10.884;2022-07-29T11:24:43;6.07;;;2.70;;
66721;SDS011;53633;49.932;10.884;2022-07-29T11:27:17;7.07;;;2.55;;
66721;SDS011;53633;49.932;10.884;2022-07-29T11:29:52;8.07;;;2.57;;
66721;SDS011;53633;49.932;10.884;2022-07-29T11:32:21;9.10;;;2.90;;
66721;SDS011;53633;49.932;10.884;2022-07-29T11:35:09;6.50;;;2.58;;
66721;SDS011;53633;49.932;10.884;2022-07-29T11:37:43;8.00;;;2.67;;
66721;SDS011;53633;49.932;10.884;2022-07-29T11:40:18;7.28;;;3.60;;
66721;SDS011;53633;49.932;10.884;2022-07-29T11:42:48;9.87;;;3.23;;
66721;SDS011;53633;49.932;10.884;2022-07-29T11:45:21;7.18;;;2.80;;
66721;SDS011;53633;49.932;10.884;2022-07-29T11:48:14;8.18;;;2.72;;
66721;SDS011;53633;49.932;10.884;2022-07-29T11:50:56;5.20;;;2.60;;
66721;SDS011;53633;49.932;10.884;2022-07-29T11:53:23;8.48;;;2.90;;
66721;SDS011;53633;49.932;10.884;2022-07-29T11:55:54;11.07;;;3.43;;
66721;SDS011;53633;49.932;10.884;2022-07-29T11:58:23;8.40;;;3.05;;
66721;SDS011;53633;49.932;10.884;2022-07-29T12:00:51;5.80;;;2.90;;
66721;SDS011;53633;49.932;10.884;2022-07-29T12:03:23;6.03;;;2.97;;
66721;SDS011;53633;49.932;10.884;2022-07-29T12:06:03;6.40;;;2.75;;
66721;SDS011;53633;49.932;10.884;2022-07-29T12:08:40;6.93;;;2.73;;
66721;SDS011;53633;49.932;10.884;2022-07-29T12:11:14;9.38;;;3.58;;
66721;SDS011;53633;49.932;10.884;2022-07-29T12:13:41;7.80;;;2.80;;
66721;SDS011;53633;49.932;10.884;2022-07-29T12:16:08;6.22;;;2.67;;
66721;SDS011;53633;49.932;10.884;2022-07-29T12:18:40;7.03;;;2.90;;
66721;SDS011;53633;49.932;10.884;2022-07-29T12:21:08;5.67;;;2.97;;
66721;SDS011;53633;49.932;10.884;2022-07-29T12:23:37;5.82;;;2.90;;
66721;SDS011;53633;49.932;10.884;2022-07-29T12:26:04;6.82;;;3.03;;
66721;SDS011;53633;49.932;10.884;2022-07-29T12:28:36;5.88;;;3.15;;
66721;SDS011;53633;49.932;10.884;2022-07-29T12:31:03;6.82;;;3.22;;
66721;SDS011;53633;49.932;10.884;2022-07-29T12:33:31;4.90;;;2.80;;
66721;SDS011;53633;49.932;10.884;2022-07-29T12:35:58;5.95;;;3.05;;
66721;SDS011;53633;49.932;10.884;2022-07-29T12:38:44;6.25;;;3.00;;
66721;SDS011;53633;49.932;10.884;2022-07-29T12:41:11;6.70;;;3.10;;
66721;SDS011;53633;49.932;10.884;2022-07-29T12:43:47;5.72;;;3.17;;
66721;SDS011;53633;49.932;10.884;2022-07-29T12:46:18;4.93;;;3.00;;
66721;SDS011;53633;49.932;10.884;2022-07-29T12:48:49;9.23;;;3.30;;
66721;SDS011;53633;49.932;10.884;2022-07-29T12:51:16;6.55;;;3.45;;
66721;SDS011;53633;49.932;10.884;2022-07-29T12:56:31;7.03;;;3.13;;
66721;SDS011;53633;49.932;10.884;2022-07-29T12:59:15;5.67;;;3.00;;
66721;SDS011;53633;49.932;10.884;2022-07-29T13:01:43;6.75;;;3.03;;
66721;SDS011;53633;49.932;10.884;2022-07-29T13:04:10;5.88;;;3.55;;
66721;SDS011;53633;49.932;10.884;2022-07-29T13:06:37;7.38;;;3.20;;
66721;SDS011;53633;49.932;10.884;2022-07-29T13:09:09;7.03;;;3.83;;
66721;SDS011;53633;49.932;10.884;2022-07-29T13:11:38;5.97;;;3.30;;
66721;SDS011;53633;49.932;10.884;2022-07-29T13:14:13;7.10;;;2.88;;
66721;SDS011;53633;49.932;10.884;2022-07-29T13:17:02;4.93;;;2.92;;
66721;SDS011;53633;49.932;10.884;2022-07-29T13:19:37;7.28;;;3.47;;
66721;SDS011;53633;49.932;10.884;2022-07-29T13:22:05;5.70;;;3.33;;
66721;SDS011;53633;49.932;10.884;2022-07-29T13:24:34;5.77;;;3.10;;
66721;SDS011;53633;49.932;10.884;2022-07-29T13:27:13;10.02;;;3.65;;
66721;SDS011;53633;49.932;10.884;2022-07-29T13:29:40;9.77;;;3.40;;
66721;SDS011;53633;49.932;10.884;2022-07-29T13:32:07;6.38;;;3.28;;
66721;SDS011;53633;49.932;10.884;2022-07-29T13:34:37;7.22;;;3.47;;
66721;SDS011;53633;49.932;10.884;2022-07-29T13:37:03;5.93;;;3.60;;
66721;SDS011;53633;49.932;10.884;2022-07-29T13:39:30;6.95;;;3.33;;
66721;SDS011;53633;49.932;10.884;2022-07-29T13:42:05;7.55;;;3.40;;
66721;SDS011;53633;49.932;10.884;2022-07-29T13:44:36;10.20;;;3.47;;
66721;SDS011;53633;49.932;10.884;2022-07-29T13:47:03;6.18;;;2.92;;
66721;SDS011;53633;49.932;10.884;2022-07-29T13:49:29;7.17;;;3.60;;
66721;SDS011;53633;49.932;10.884;2022-07-29T13:51:56;8.35;;;3.47;;
66721;SDS011;53633;49.932;10.884;2022-07-29T13:54:23;7.63;;;3.78;;
66721;SDS011;53633;49.932;10.884;2022-07-29T13:56:52;6.05;;;3.45;;
66721;SDS011;53633;49.932;10.884;2022-07-29T13:59:21;8.40;;;3.65;;
66721;SDS011;53633;49.932;10.884;2022-07-29T14:01:48;7.90;;;3.40;;
66721;SDS011;53633;49.932;10.884;2022-07-29T14:04:15;8.90;;;3.70;;
66721;SDS011;53633;49.932;10.884;2022-07-29T14:06:41;5.53;;;3.28;;
66721;SDS011;53633;49.932;10.884;2022-07-29T14:09:08;6.45;;;3.67;;
66721;SDS011;53633;49.932;10.884;2022-07-29T14:11:35;6.60;;;3.67;;
66721;SDS011;53633;49.932;10.884;2022-07-29T14:14:02;7.07;;;3.13;;
66721;SDS011;53633;49.932;10.884;2022-07-29T14:16:30;7.13;;;3.70;;
66721;SDS011;53633;49.932;10.884;2022-07-29T14:18:56;6.75;;;3.92;;
66721;SDS011;53633;49.932;10.884;2022-07-29T14:21:23;6.57;;;3.25;;
66721;SDS011;53633;49.932;10.884;2022-07-29T14:23:50;5.70;;;3.53;;
66721;SDS011;53633;49.932;10.884;2022-07-29T14:26:19;6.83;;;3.03;;
66721;SDS011;53633;49.932;10.884;2022-07-29T14:28:49;8.43;;;3.55;;
66721;SDS011;53633;49.932;10.884;2022-07-29T14:31:16;7.10;;;3.33;;
66721;SDS011;53633;49.932;10.884;2022-07-29T14:33:44;6.35;;;2.78;;
66721;SDS011;53633;49.932;10.884;2022-07-29T14:36:14;6.65;;;3.75;;
66721;SDS011;53633;49.932;10.884;2022-07-29T14:38:41;8.30;;;3.63;;
66721;SDS011;53633;49.932;10.884;2022-07-29T14:41:08;7.60;;;3.40;;
66721;SDS011;53633;49.932;10.884;2022-07-29T14:43:35;8.40;;;3.80;;
66721;SDS011;53633;49.932;10.884;2022-07-29T14:46:04;6.72;;;3.75;;
66721;SDS011;53633;49.932;10.884;2022-07-29T14:48:33;7.00;;;3.42;;
66721;SDS011;53633;49.932;10.884;2022-07-29T14:51:01;8.10;;;3.43;;
66721;SDS011;53633;49.932;10.884;2022-07-29T14:53:30;6.82;;;3.20;;
66721;SDS011;53633;49.932;10.884;2022-07-29T14:55:58;6.68;;;3.55;;
66721;SDS011;53633;49.932;10.884;2022-07-29T14:58:45;5.55;;;2.80;;
66721;SDS011;53633;49.932;10.884;2022-07-29T15:01:17;7.15;;;3.30;;
66721;SDS011;53633;49.932;10.884;2022-07-29T15:03:44;6.93;;;2.93;;